Time;durP1;ratioP1;P1;durP2;ratioP2;P2;SDS_P1;SDS_P2;PMS_P1;PMS_P2;Temp;Humidity;BMP_temperature;BMP_pressure;BME280_temperature;BME280_humidity;BME280_pressure;Samples;Min_cycle;Max_cycle;Signal;HPM_P1;HPM_P2
2022/07/02 00:00:49;;;;;;;;;8.20;8.20;;;;;;;;5035052;28;8888;-75
2022/07/02 00:03:16;;;;;;;;;9.80;7.80;;;;;;;;5035867;28;8796;-76
2022/07/02 00:05:55;;;;;;;;;9.00;9.00;;;;;;;;5036021;28;8768;-78
2022/07/02 00:08:23;;;;;;;;;11.40;11.40;;;;;;;;5035767;28;8890;-75
2022/07/02 00:10:50;;;;;;;;;10.20;10.20;;;;;;;;5034758;28;8780;-75
2022/07/02 00:13:17;;;;;;;;;9.80;8.80;;;;;;;;5019033;28;8756;-75
2022/07/02 00:15:44;;;;;;;;;9.20;7.80;;;;;;;;5034588;28;8800;-75
2022/07/02 00:18:11;;;;;;;;;10.60;8.80;;;;;;;;5014724;28;8778;-80
2022/07/02 00:20:38;;;;;;;;;6.80;6.80;;;;;;;;5014381;28;8833;-75
2022/07/02 00:23:05;;;;;;;;;10.40;7.40;;;;;;;;4998604;28;8805;-80
2022/07/02 00:25:38;;;;;;;;;6.00;6.00;;;;;;;;5014088;28;8755;-82
2022/07/02 00:28:06;;;;;;;;;4.60;4.60;;;;;;;;5015479;28;8779;-75
2022/07/02 00:30:33;;;;;;;;;8.40;7.80;;;;;;;;5000211;28;8854;-80
2022/07/02 00:33:03;;;;;;;;;6.60;6.40;;;;;;;;5030037;28;8799;-75
2022/07/02 00:35:30;;;;;;;;;7.20;7.00;;;;;;;;5055110;28;8785;-80
2022/07/02 00:37:56;;;;;;;;;9.80;8.20;;;;;;;;5037476;28;8777;-86
2022/07/02 00:40:23;;;;;;;;;10.20;6.40;;;;;;;;5038174;28;8830;-75
2022/07/02 00:42:50;;;;;;;;;6.00;3.00;;;;;;;;5055855;28;8767;-75
2022/07/02 00:45:20;;;;;;;;;6.20;5.20;;;;;;;;5021016;28;9537;-80
2022/07/02 00:47:47;;;;;;;;;8.20;8.00;;;;;;;;5037680;28;8791;-80
2022/07/02 00:50:13;;;;;;;;;8.60;7.80;;;;;;;;5037561;28;8775;-80
2022/07/02 00:52:40;;;;;;;;;9.60;8.40;;;;;;;;5036378;28;8783;-75
2022/07/02 00:55:07;;;;;;;;;5.60;5.60;;;;;;;;5021607;28;8759;-75
2022/07/02 00:57:33;;;;;;;;;7.40;7.00;;;;;;;;5036948;28;8775;-75
2022/07/02 01:00:00;;;;;;;;;10.00;6.80;;;;;;;;5037390;28;8802;-75
2022/07/02 01:02:27;;;;;;;;;7.20;6.80;;;;;;;;5054473;28;8791;-75
2022/07/02 01:04:54;;;;;;;;;9.80;9.00;;;;;;;;5037386;28;8771;-80
2022/07/02 01:07:20;;;;;;;;;8.00;6.40;;;;;;;;5037721;28;8793;-81
2022/07/02 01:12:32;;;;;;;;;10.60;7.40;;;;;;;;5039215;28;8770;-75
2022/07/02 01:14:59;;;;;;;;;9.80;6.40;;;;;;;;5020588;28;8767;-75
2022/07/02 01:17:26;;;;;;;;;6.00;4.80;;;;;;;;5036709;28;8774;-81
2022/07/02 01:19:52;;;;;;;;;6.00;4.00;;;;;;;;5037154;28;8841;-80
2022/07/02 01:22:20;;;;;;;;;3.00;3.00;;;;;;;;5037698;28;8762;-76
2022/07/02 01:24:47;;;;;;;;;6.20;3.60;;;;;;;;5036875;28;8778;-75
2022/07/02 01:27:14;;;;;;;;;3.20;3.20;;;;;;;;5036745;28;8759;-81
2022/07/02 01:29:41;;;;;;;;;5.00;4.20;;;;;;;;5036376;28;8992;-80
2022/07/02 01:32:08;;;;;;;;;5.00;3.60;;;;;;;;5054108;28;8810;-81
2022/07/02 01:34:36;;;;;;;;;5.60;4.00;;;;;;;;5020074;28;8860;-75
2022/07/02 01:37:03;;;;;;;;;3.40;3.00;;;;;;;;5037564;28;8759;-80
2022/07/02 01:39:29;;;;;;;;;6.60;3.60;;;;;;;;5019809;28;8774;-75
2022/07/02 01:41:56;;;;;;;;;4.00;3.80;;;;;;;;5036801;28;8763;-75
2022/07/02 01:44:23;;;;;;;;;4.00;4.00;;;;;;;;5054073;28;8840;-80
2022/07/02 01:46:49;;;;;;;;;4.20;2.80;;;;;;;;5020220;28;8865;-86
2022/07/02 01:49:16;;;;;;;;;3.40;2.80;;;;;;;;5037466;28;8767;-80
2022/07/02 01:51:43;;;;;;;;;4.80;1.20;;;;;;;;5019835;28;8806;-79
2022/07/02 01:54:09;;;;;;;;;3.20;3.20;;;;;;;;5054212;28;8797;-75
2022/07/02 01:56:36;;;;;;;;;4.20;4.00;;;;;;;;5036498;28;8896;-76
2022/07/02 01:59:03;;;;;;;;;4.00;2.80;;;;;;;;5036741;28;8872;-75
2022/07/02 02:01:29;;;;;;;;;4.80;3.40;;;;;;;;5019885;28;8774;-76
2022/07/02 02:03:56;;;;;;;;;7.20;5.00;;;;;;;;5035962;28;8777;-75
2022/07/02 02:06:23;;;;;;;;;4.60;2.80;;;;;;;;5020484;28;8780;-75
2022/07/02 02:08:49;;;;;;;;;5.80;5.80;;;;;;;;5038161;28;8779;-75
2022/07/02 02:11:16;;;;;;;;;5.40;5.00;;;;;;;;5038270;28;8801;-75
2022/07/02 02:13:43;;;;;;;;;7.00;6.00;;;;;;;;5020745;28;8777;-80
2022/07/02 02:16:10;;;;;;;;;4.80;3.40;;;;;;;;5021357;28;8773;-75
2022/07/02 02:18:36;;;;;;;;;5.00;5.00;;;;;;;;5016949;28;9529;-80
2022/07/02 02:21:03;;;;;;;;;9.80;5.80;;;;;;;;5020195;28;8839;-75
2022/07/02 02:23:30;;;;;;;;;5.80;4.20;;;;;;;;5036578;28;8757;-75
2022/07/02 02:25:56;;;;;;;;;6.60;5.00;;;;;;;;5036829;28;8911;-75
2022/07/02 02:28:23;;;;;;;;;10.20;7.00;;;;;;;;5038301;28;8815;-75
2022/07/02 02:30:49;;;;;;;;;5.60;4.00;;;;;;;;5016351;28;8847;-80
2022/07/02 02:33:16;;;;;;;;;10.00;6.40;;;;;;;;5036278;28;8785;-75
2022/07/02 02:35:43;;;;;;;;;9.00;8.40;;;;;;;;5036506;28;8795;-80
2022/07/02 02:38:09;;;;;;;;;9.00;8.00;;;;;;;;5037815;28;8783;-79
2022/07/02 02:40:36;;;;;;;;;10.80;8.80;;;;;;;;5037509;28;8744;-80
2022/07/02 02:43:03;;;;;;;;;8.80;7.00;;;;;;;;5037177;28;8752;-76
2022/07/02 02:45:29;;;;;;;;;19.20;9.00;;;;;;;;5019707;28;8760;-80
2022/07/02 02:47:56;;;;;;;;;7.40;5.20;;;;;;;;5037364;28;8788;-80
2022/07/02 02:50:22;;;;;;;;;6.40;6.40;;;;;;;;5035956;28;8795;-79
2022/07/02 02:52:49;;;;;;;;;6.40;6.40;;;;;;;;5036427;28;8794;-75
2022/07/02 02:55:16;;;;;;;;;4.00;4.00;;;;;;;;5036945;28;8802;-75
2022/07/02 02:57:42;;;;;;;;;6.80;5.00;;;;;;;;5036030;28;8792;-77
2022/07/02 03:00:09;;;;;;;;;4.40;4.40;;;;;;;;5036079;28;8768;-76
2022/07/02 03:02:36;;;;;;;;;5.60;5.00;;;;;;;;5035729;28;8826;-80
2022/07/02 03:05:03;;;;;;;;;7.20;6.20;;;;;;;;5019589;28;8784;-75
2022/07/02 03:07:29;;;;;;;;;7.20;4.20;;;;;;;;5019540;28;8772;-86
2022/07/02 03:09:56;;;;;;;;;5.00;4.00;;;;;;;;5036720;28;8757;-75
2022/07/02 03:12:23;;;;;;;;;3.20;2.80;;;;;;;;5036492;28;8792;-75
2022/07/02 03:14:49;;;;;;;;;4.20;3.00;;;;;;;;5034988;28;9424;-80
2022/07/02 03:17:16;;;;;;;;;5.20;3.80;;;;;;;;5035780;28;8788;-79
2022/07/02 03:19:43;;;;;;;;;5.40;3.00;;;;;;;;5035683;28;8858;-75
2022/07/02 03:22:10;;;;;;;;;6.80;6.80;;;;;;;;5036487;28;8882;-80
2022/07/02 03:24:36;;;;;;;;;4.40;3.40;;;;;;;;5018934;28;8902;-75
2022/07/02 03:27:03;;;;;;;;;3.00;2.60;;;;;;;;5035603;28;8776;-81
2022/07/02 03:29:30;;;;;;;;;3.20;2.60;;;;;;;;5035429;28;8804;-81
2022/07/02 03:31:56;;;;;;;;;4.40;2.60;;;;;;;;5050239;28;8848;-76
2022/07/02 03:34:23;;;;;;;;;6.00;3.40;;;;;;;;5039459;28;8856;-81
2022/07/02 03:36:50;;;;;;;;;4.00;3.00;;;;;;;;5022776;28;9578;-80
2022/07/02 03:39:16;;;;;;;;;2.40;2.40;;;;;;;;5038882;28;8781;-75
2022/07/02 03:41:43;;;;;;;;;3.40;3.00;;;;;;;;5038953;28;8905;-80
2022/07/02 03:44:10;;;;;;;;;4.00;2.20;;;;;;;;5056584;28;8766;-81
2022/07/02 03:46:36;;;;;;;;;4.00;4.00;;;;;;;;5055669;28;8775;-75
2022/07/02 03:49:03;;;;;;;;;4.40;4.00;;;;;;;;5039455;28;8775;-75
2022/07/02 03:51:30;;;;;;;;;4.00;3.20;;;;;;;;5038424;28;8896;-81
2022/07/02 03:53:56;;;;;;;;;4.40;3.00;;;;;;;;5021974;28;8844;-75
2022/07/02 03:56:23;;;;;;;;;3.40;3.20;;;;;;;;5038028;28;8876;-76
2022/07/02 03:58:49;;;;;;;;;3.80;2.20;;;;;;;;5038779;28;8897;-75
2022/07/02 04:01:16;;;;;;;;;4.00;3.00;;;;;;;;5039277;28;8893;-86
2022/07/02 04:03:43;;;;;;;;;4.80;4.00;;;;;;;;5037820;28;8806;-76
2022/07/02 04:06:09;;;;;;;;;3.00;3.00;;;;;;;;5037855;28;8759;-75
2022/07/02 04:08:36;;;;;;;;;4.00;3.00;;;;;;;;5055826;28;8859;-81
2022/07/02 04:11:03;;;;;;;;;3.20;3.20;;;;;;;;5021678;28;8795;-75
2022/07/02 04:13:29;;;;;;;;;3.80;2.00;;;;;;;;5038096;28;8885;-75
2022/07/02 04:15:56;;;;;;;;;2.00;2.00;;;;;;;;5056530;28;8785;-75
2022/07/02 04:18:23;;;;;;;;;0.00;0.00;;;;;;;;5037658;28;8786;-76
2022/07/02 04:20:49;;;;;;;;;2.20;1.20;;;;;;;;5038006;28;9441;-75
2022/07/02 04:23:16;;;;;;;;;4.00;2.20;;;;;;;;5021500;28;8759;-75
2022/07/02 04:25:42;;;;;;;;;2.00;2.00;;;;;;;;5021370;28;8783;-75
2022/07/02 04:28:10;;;;;;;;;4.00;2.40;;;;;;;;5038637;28;9439;-80
2022/07/02 04:30:37;;;;;;;;;1.00;1.00;;;;;;;;5037635;28;8922;-75
2022/07/02 04:33:04;;;;;;;;;3.00;1.40;;;;;;;;5037523;28;8921;-76
2022/07/02 04:35:31;;;;;;;;;3.40;2.00;;;;;;;;5037693;28;8794;-75
2022/07/02 04:37:58;;;;;;;;;1.60;1.00;;;;;;;;5038005;28;8812;-75
2022/07/02 04:40:24;;;;;;;;;1.20;1.20;;;;;;;;5037112;28;8739;-80
2022/07/02 04:42:51;;;;;;;;;0.40;0.40;;;;;;;;5021831;28;8774;-75
2022/07/02 04:45:17;;;;;;;;;4.00;2.00;;;;;;;;5037559;28;8767;-76
2022/07/02 04:47:44;;;;;;;;;1.20;1.00;;;;;;;;5017686;28;8777;-75
2022/07/02 04:50:11;;;;;;;;;2.00;0.80;;;;;;;;5017824;28;8781;-76
2022/07/02 04:52:37;;;;;;;;;2.40;2.00;;;;;;;;5017018;28;8943;-75
2022/07/02 04:55:04;;;;;;;;;3.00;3.00;;;;;;;;5035900;28;8795;-80
2022/07/02 04:57:31;;;;;;;;;2.00;1.80;;;;;;;;5016982;28;8769;-75
2022/07/02 04:59:57;;;;;;;;;1.60;1.40;;;;;;;;5001067;28;8793;-75
2022/07/02 05:02:24;;;;;;;;;1.00;1.00;;;;;;;;5041732;28;8783;-80
2022/07/02 05:04:51;;;;;;;;;3.60;1.20;;;;;;;;5037112;28;8869;-75
2022/07/02 05:07:17;;;;;;;;;1.80;1.80;;;;;;;;5037971;28;9535;-75
2022/07/02 05:09:44;;;;;;;;;2.00;2.00;;;;;;;;5054476;28;9473;-75
2022/07/02 05:12:11;;;;;;;;;6.40;2.80;;;;;;;;5020482;28;8794;-75
2022/07/02 05:14:38;;;;;;;;;2.60;2.00;;;;;;;;5036935;28;8814;-81
2022/07/02 05:17:05;;;;;;;;;3.80;2.20;;;;;;;;5037283;28;8793;-75
2022/07/02 05:19:31;;;;;;;;;4.00;3.20;;;;;;;;5036884;28;8844;-75
2022/07/02 05:21:58;;;;;;;;;3.80;2.60;;;;;;;;5037774;28;8839;-80
2022/07/02 05:24:25;;;;;;;;;3.40;3.40;;;;;;;;5036472;28;8786;-76
2022/07/02 05:26:51;;;;;;;;;5.00;2.20;;;;;;;;5036666;28;8797;-75
2022/07/02 05:29:18;;;;;;;;;4.80;3.40;;;;;;;;5036774;28;8795;-75
2022/07/02 05:31:44;;;;;;;;;4.40;3.80;;;;;;;;5036628;28;8945;-75
2022/07/02 05:34:11;;;;;;;;;5.60;4.00;;;;;;;;5037678;28;9422;-75
2022/07/02 05:36:38;;;;;;;;;6.00;4.00;;;;;;;;5036355;28;8787;-75
2022/07/02 05:39:04;;;;;;;;;5.00;5.00;;;;;;;;5036173;28;9442;-75
2022/07/02 05:41:31;;;;;;;;;4.40;4.40;;;;;;;;5054181;28;8779;-75
2022/07/02 05:43:58;;;;;;;;;3.40;3.40;;;;;;;;5036918;28;8755;-76
2022/07/02 05:46:25;;;;;;;;;4.60;4.60;;;;;;;;5036294;28;8786;-75
2022/07/02 05:48:52;;;;;;;;;5.00;4.60;;;;;;;;5037055;28;8751;-80
2022/07/02 05:51:18;;;;;;;;;5.00;5.00;;;;;;;;5036387;28;8787;-79
2022/07/02 05:53:45;;;;;;;;;2.60;2.60;;;;;;;;5054126;28;8857;-76
2022/07/02 05:56:12;;;;;;;;;7.00;4.80;;;;;;;;5054328;28;8781;-75
2022/07/02 05:58:39;;;;;;;;;4.20;4.20;;;;;;;;5036659;28;8767;-75
2022/07/02 06:01:06;;;;;;;;;4.80;4.20;;;;;;;;5037273;28;8786;-75
2022/07/02 06:03:33;;;;;;;;;4.00;3.00;;;;;;;;5036045;28;8790;-75
2022/07/02 06:08:44;;;;;;;;;5.00;3.20;;;;;;;;5053991;28;8824;-81
2022/07/02 06:11:11;;;;;;;;;3.20;3.20;;;;;;;;5054164;28;8816;-81
2022/07/02 06:13:38;;;;;;;;;3.60;3.60;;;;;;;;5053910;28;8801;-75
2022/07/02 06:16:04;;;;;;;;;5.80;4.80;;;;;;;;5036908;28;8787;-75
2022/07/02 06:18:31;;;;;;;;;5.00;5.00;;;;;;;;5053297;28;8897;-75
2022/07/02 06:20:58;;;;;;;;;4.80;2.80;;;;;;;;5019885;28;8789;-75
2022/07/02 06:23:24;;;;;;;;;4.00;4.00;;;;;;;;5035983;28;8779;-75
2022/07/02 06:25:52;;;;;;;;;6.80;6.00;;;;;;;;5036607;28;8797;-81
2022/07/02 06:28:19;;;;;;;;;6.20;4.80;;;;;;;;5053891;28;8751;-76
2022/07/02 06:30:46;;;;;;;;;8.60;6.60;;;;;;;;5015980;28;8832;-80
2022/07/02 06:33:12;;;;;;;;;7.40;6.80;;;;;;;;5032639;28;8796;-75
2022/07/02 06:35:40;;;;;;;;;8.00;7.60;;;;;;;;5032481;28;8792;-76
2022/07/02 06:38:07;;;;;;;;;5.60;5.60;;;;;;;;5032860;28;8795;-76
2022/07/02 06:40:34;;;;;;;;;7.40;7.40;;;;;;;;5033889;28;8764;-76
2022/07/02 06:43:01;;;;;;;;;7.80;6.20;;;;;;;;5033524;28;8765;-75
2022/07/02 06:45:27;;;;;;;;;6.60;5.00;;;;;;;;5032519;28;8898;-76
2022/07/02 06:47:54;;;;;;;;;5.00;5.00;;;;;;;;5032510;28;8810;-76
2022/07/02 06:50:20;;;;;;;;;5.80;4.20;;;;;;;;5033457;28;8772;-81
2022/07/02 06:52:47;;;;;;;;;7.60;5.80;;;;;;;;5036353;28;8791;-81
2022/07/02 06:55:14;;;;;;;;;6.60;5.00;;;;;;;;5036435;28;9435;-81
2022/07/02 06:57:40;;;;;;;;;5.60;5.60;;;;;;;;5035945;28;8780;-80
2022/07/02 07:00:07;;;;;;;;;7.60;3.80;;;;;;;;5036188;28;8776;-75
2022/07/02 07:02:34;;;;;;;;;6.00;5.60;;;;;;;;5016030;28;8771;-81
2022/07/02 07:05:00;;;;;;;;;5.20;5.00;;;;;;;;5016414;28;9462;-75
2022/07/02 07:07:29;;;;;;;;;7.20;6.00;;;;;;;;5017301;28;8775;-81
2022/07/02 07:09:55;;;;;;;;;7.60;6.80;;;;;;;;5000884;28;8775;-81
2022/07/02 07:12:22;;;;;;;;;7.80;5.20;;;;;;;;5015953;28;8944;-76
2022/07/02 07:14:49;;;;;;;;;7.00;5.00;;;;;;;;4999758;28;8791;-75
2022/07/02 07:17:16;;;;;;;;;7.20;4.40;;;;;;;;5018315;28;8893;-80
2022/07/02 07:19:43;;;;;;;;;9.40;6.60;;;;;;;;4999975;28;8794;-75
2022/07/02 07:22:09;;;;;;;;;6.00;6.00;;;;;;;;5016611;28;8778;-75
2022/07/02 07:24:36;;;;;;;;;5.80;4.40;;;;;;;;5015613;28;8787;-80
2022/07/02 07:27:03;;;;;;;;;8.60;7.60;;;;;;;;4999644;28;8909;-75
2022/07/02 07:29:29;;;;;;;;;9.00;7.00;;;;;;;;5015550;28;8841;-81
2022/07/02 07:31:56;;;;;;;;;10.20;7.40;;;;;;;;5033257;28;8779;-75
2022/07/02 07:34:23;;;;;;;;;6.80;6.40;;;;;;;;5039184;28;8771;-76
2022/07/02 07:36:51;;;;;;;;;8.20;8.00;;;;;;;;5022305;28;8771;-81
2022/07/02 07:39:18;;;;;;;;;7.60;7.00;;;;;;;;5038772;28;8788;-82
2022/07/02 07:41:44;;;;;;;;;7.40;7.40;;;;;;;;5038876;28;8775;-82
2022/07/02 07:44:11;;;;;;;;;8.20;7.20;;;;;;;;5038688;28;8809;-81
2022/07/02 07:46:38;;;;;;;;;9.80;7.40;;;;;;;;5021857;28;8825;-75
2022/07/02 07:49:04;;;;;;;;;10.20;7.00;;;;;;;;5039460;28;8755;-76
2022/07/02 07:51:31;;;;;;;;;6.60;6.20;;;;;;;;5038336;28;8884;-75
2022/07/02 07:53:57;;;;;;;;;7.80;7.40;;;;;;;;5038565;28;8767;-75
2022/07/02 07:56:24;;;;;;;;;10.40;8.40;;;;;;;;5055950;28;8790;-76
2022/07/02 07:58:51;;;;;;;;;9.80;8.40;;;;;;;;5038543;28;8780;-75
2022/07/02 08:01:17;;;;;;;;;7.60;7.60;;;;;;;;5038904;28;8779;-75
2022/07/02 08:03:44;;;;;;;;;9.80;6.20;;;;;;;;5018128;28;8805;-81
2022/07/02 08:06:11;;;;;;;;;10.40;8.40;;;;;;;;5035997;28;8819;-75
2022/07/02 08:08:37;;;;;;;;;9.00;9.00;;;;;;;;5018453;28;8800;-80
2022/07/02 08:11:04;;;;;;;;;13.60;10.20;;;;;;;;5018546;28;8832;-75
2022/07/02 08:13:31;;;;;;;;;8.60;8.00;;;;;;;;5035824;28;8749;-75
2022/07/02 08:15:57;;;;;;;;;10.00;9.00;;;;;;;;5019180;28;8776;-75
2022/07/02 08:18:24;;;;;;;;;11.20;10.00;;;;;;;;5032945;28;8845;-81
2022/07/02 08:20:51;;;;;;;;;10.20;8.00;;;;;;;;5038032;28;8807;-75
2022/07/02 08:23:17;;;;;;;;;11.60;8.80;;;;;;;;5037811;28;8781;-81
2022/07/02 08:25:44;;;;;;;;;9.20;9.20;;;;;;;;5038103;28;8771;-75
2022/07/02 08:28:11;;;;;;;;;9.80;8.60;;;;;;;;5056296;28;9492;-80
2022/07/02 08:30:37;;;;;;;;;9.00;8.40;;;;;;;;5055013;28;8826;-76
2022/07/02 08:33:04;;;;;;;;;10.40;9.00;;;;;;;;5055219;28;8804;-75
2022/07/02 08:35:31;;;;;;;;;10.00;7.00;;;;;;;;5037387;28;8779;-75
2022/07/02 08:37:58;;;;;;;;;10.80;9.40;;;;;;;;5037825;28;8759;-81
2022/07/02 08:40:24;;;;;;;;;11.60;7.20;;;;;;;;5037296;28;9489;-77
2022/07/02 08:42:52;;;;;;;;;8.00;7.40;;;;;;;;5021828;28;8762;-75
2022/07/02 08:45:19;;;;;;;;;10.80;8.20;;;;;;;;5037354;28;8857;-81
2022/07/02 08:47:46;;;;;;;;;11.00;8.00;;;;;;;;5017509;28;8804;-76
2022/07/02 08:50:12;;;;;;;;;11.60;10.00;;;;;;;;5017813;28;8784;-80
2022/07/02 08:52:40;;;;;;;;;10.60;10.00;;;;;;;;5017609;28;8827;-75
2022/07/02 08:55:06;;;;;;;;;8.00;8.00;;;;;;;;5018559;28;8765;-75
2022/07/02 08:57:33;;;;;;;;;9.80;8.80;;;;;;;;5017208;28;8783;-81
2022/07/02 09:00:00;;;;;;;;;10.80;7.60;;;;;;;;5017669;28;8788;-75
2022/07/02 09:02:27;;;;;;;;;10.60;8.20;;;;;;;;5004621;28;8796;-75
2022/07/02 09:04:53;;;;;;;;;12.00;8.60;;;;;;;;5017564;28;9424;-75
2022/07/02 09:07:20;;;;;;;;;9.80;8.60;;;;;;;;5017964;28;8758;-76
2022/07/02 09:09:47;;;;;;;;;6.40;6.40;;;;;;;;5033240;28;8781;-75
2022/07/02 09:12:14;;;;;;;;;12.20;8.60;;;;;;;;5017161;28;8805;-80
2022/07/02 09:14:41;;;;;;;;;7.40;5.20;;;;;;;;5016760;28;8769;-75
2022/07/02 09:17:08;;;;;;;;;6.80;6.00;;;;;;;;5017319;28;9409;-81
2022/07/02 09:19:35;;;;;;;;;3.20;3.20;;;;;;;;5016608;28;8876;-76
2022/07/02 09:22:02;;;;;;;;;5.00;1.20;;;;;;;;5017992;28;8777;-75
2022/07/02 09:24:32;;;;;;;;;1.00;1.00;;;;;;;;5016955;28;8796;-75
2022/07/02 09:27:02;;;;;;;;;4.00;3.00;;;;;;;;5017178;28;8783;-75
2022/07/02 09:29:28;;;;;;;;;2.00;2.00;;;;;;;;5016938;28;8820;-76
2022/07/02 09:31:55;;;;;;;;;3.80;2.80;;;;;;;;5016441;28;8865;-75
2022/07/02 09:34:27;;;;;;;;;3.00;3.00;;;;;;;;5034925;28;8823;-81
2022/07/02 09:36:54;;;;;;;;;3.00;2.00;;;;;;;;5033870;28;8858;-75
2022/07/02 09:39:30;;;;;;;;;3.20;2.80;;;;;;;;5032937;28;8780;-76
2022/07/02 09:41:57;;;;;;;;;3.40;3.00;;;;;;;;5033303;28;8768;-80
2022/07/02 09:44:25;;;;;;;;;3.00;2.00;;;;;;;;5033030;28;8784;-75
2022/07/02 09:46:52;;;;;;;;;2.80;2.00;;;;;;;;5034472;28;8774;-75
2022/07/02 09:49:19;;;;;;;;;5.00;2.60;;;;;;;;5034950;28;8754;-76
2022/07/02 09:51:49;;;;;;;;;4.00;4.00;;;;;;;;5033161;28;8806;-75
2022/07/02 09:54:24;;;;;;;;;5.20;3.00;;;;;;;;5033032;28;8803;-75
2022/07/02 09:56:52;;;;;;;;;3.00;3.00;;;;;;;;5033237;28;8772;-75
2022/07/02 09:59:18;;;;;;;;;3.20;3.00;;;;;;;;5032793;28;9416;-76
2022/07/02 10:01:45;;;;;;;;;2.00;2.00;;;;;;;;5016839;28;8820;-80
2022/07/02 10:04:13;;;;;;;;;2.80;2.80;;;;;;;;5033897;28;8756;-75
2022/07/02 10:06:40;;;;;;;;;2.40;1.80;;;;;;;;5032866;28;8784;-75
2022/07/02 10:09:07;;;;;;;;;1.60;1.60;;;;;;;;5033027;28;8784;-76
2022/07/02 10:11:33;;;;;;;;;4.40;4.20;;;;;;;;5032759;28;8788;-75
2022/07/02 10:14:00;;;;;;;;;4.40;3.00;;;;;;;;5033242;28;8829;-75
2022/07/02 10:16:27;;;;;;;;;4.20;2.20;;;;;;;;5032993;28;8869;-77
2022/07/02 10:18:53;;;;;;;;;6.60;5.40;;;;;;;;5033594;28;8753;-76
2022/07/02 10:21:21;;;;;;;;;4.40;4.20;;;;;;;;5032513;28;8780;-80
2022/07/02 10:23:48;;;;;;;;;3.40;2.60;;;;;;;;5016934;28;8807;-80
2022/07/02 10:26:14;;;;;;;;;2.60;2.60;;;;;;;;5038180;28;8780;-81
2022/07/02 10:28:42;;;;;;;;;3.40;3.20;;;;;;;;5037010;28;8782;-78
2022/07/02 10:31:10;;;;;;;;;3.60;3.00;;;;;;;;5037143;28;8824;-75
2022/07/02 10:33:40;;;;;;;;;2.80;1.20;;;;;;;;5036076;28;8903;-75
2022/07/02 10:36:08;;;;;;;;;3.20;3.00;;;;;;;;5020207;28;8772;-76
2022/07/02 10:38:37;;;;;;;;;4.80;4.80;;;;;;;;5036401;28;8879;-75
2022/07/02 10:41:04;;;;;;;;;3.00;3.00;;;;;;;;5020445;28;8760;-80
2022/07/02 10:43:33;;;;;;;;;3.20;3.20;;;;;;;;5036350;28;8850;-75
2022/07/02 10:46:03;;;;;;;;;4.00;3.40;;;;;;;;5037107;28;8760;-76
2022/07/02 10:48:30;;;;;;;;;3.60;3.60;;;;;;;;5035699;28;8772;-75
2022/07/02 10:50:58;;;;;;;;;7.60;4.60;;;;;;;;5037440;28;8788;-75
2022/07/02 10:53:27;;;;;;;;;3.20;3.00;;;;;;;;5036128;28;8800;-75
2022/07/02 10:55:59;;;;;;;;;5.40;3.00;;;;;;;;5037433;28;8833;-75
2022/07/02 10:58:27;;;;;;;;;2.20;2.20;;;;;;;;5035896;28;8803;-81
2022/07/02 11:00:53;;;;;;;;;2.80;1.00;;;;;;;;5036953;28;8768;-75
2022/07/02 11:03:21;;;;;;;;;5.00;3.20;;;;;;;;5036769;28;8776;-76
2022/07/02 11:05:59;;;;;;;;;4.20;4.00;;;;;;;;5019739;28;8772;-86
2022/07/02 11:08:44;;;;;;;;;6.80;3.60;;;;;;;;5037017;28;8765;-75
2022/07/02 11:11:21;;;;;;;;;4.00;4.00;;;;;;;;5037180;28;8796;-80
2022/07/02 11:13:49;;;;;;;;;3.60;3.00;;;;;;;;5036006;28;8776;-76
2022/07/02 11:16:29;;;;;;;;;4.60;3.00;;;;;;;;5036612;28;8903;-76
2022/07/02 11:18:57;;;;;;;;;4.00;4.00;;;;;;;;5036234;28;8772;-75
2022/07/02 11:21:24;;;;;;;;;6.00;5.40;;;;;;;;5019315;28;8764;-75
2022/07/02 11:23:51;;;;;;;;;4.80;4.00;;;;;;;;5035727;28;8761;-75
2022/07/02 11:26:19;;;;;;;;;4.20;4.20;;;;;;;;5035621;28;8768;-75
2022/07/02 11:28:46;;;;;;;;;4.80;4.40;;;;;;;;5035694;28;8799;-81
2022/07/02 11:31:12;;;;;;;;;3.20;3.00;;;;;;;;5036093;28;8823;-75
2022/07/02 11:33:46;;;;;;;;;4.20;3.00;;;;;;;;5034923;28;9464;-75
2022/07/02 11:36:13;;;;;;;;;2.40;1.60;;;;;;;;5034794;28;8776;-75
2022/07/02 11:38:40;;;;;;;;;5.20;4.00;;;;;;;;5035050;28;8807;-80
2022/07/02 11:41:19;;;;;;;;;4.60;4.00;;;;;;;;5035550;28;8791;-75
2022/07/02 11:43:47;;;;;;;;;5.00;5.00;;;;;;;;5036667;28;8777;-75
2022/07/02 11:46:14;;;;;;;;;9.00;6.40;;;;;;;;5035537;28;8768;-81
2022/07/02 11:48:40;;;;;;;;;3.80;3.40;;;;;;;;5015109;28;8771;-75
2022/07/02 11:51:07;;;;;;;;;5.20;5.20;;;;;;;;5015364;28;8854;-75
2022/07/02 11:53:34;;;;;;;;;6.80;6.00;;;;;;;;5016233;28;8853;-80
2022/07/02 11:56:11;;;;;;;;;7.60;6.60;;;;;;;;5015491;28;8901;-75
2022/07/02 11:58:41;;;;;;;;;4.80;4.80;;;;;;;;5015180;28;8779;-75
2022/07/02 12:01:37;;;;;;;;;5.80;4.20;;;;;;;;5015909;28;8798;-81
2022/07/02 12:04:04;;;;;;;;;7.00;5.40;;;;;;;;5012237;28;8782;-75
2022/07/02 12:06:32;;;;;;;;;8.60;5.40;;;;;;;;5014896;28;8964;-75
2022/07/02 12:08:59;;;;;;;;;8.80;6.40;;;;;;;;5014905;28;8782;-75
2022/07/02 12:11:26;;;;;;;;;9.80;6.80;;;;;;;;5014601;28;8838;-76
2022/07/02 12:13:53;;;;;;;;;6.40;5.00;;;;;;;;5015251;28;8763;-75
2022/07/02 12:16:21;;;;;;;;;6.00;6.00;;;;;;;;5015019;28;8743;-75
2022/07/02 12:18:57;;;;;;;;;7.40;5.40;;;;;;;;5032517;28;8799;-75
2022/07/02 12:21:25;;;;;;;;;9.20;6.20;;;;;;;;5034293;28;8788;-75
2022/07/02 12:23:52;;;;;;;;;8.60;6.40;;;;;;;;5034344;28;8772;-75
2022/07/02 12:26:23;;;;;;;;;10.60;7.80;;;;;;;;5034482;28;8810;-81
2022/07/02 12:31:42;;;;;;;;;8.80;7.00;;;;;;;;5045283;28;8819;-75
2022/07/02 12:34:09;;;;;;;;;6.00;6.00;;;;;;;;5022031;28;8802;-75
2022/07/02 12:36:45;;;;;;;;;8.00;6.00;;;;;;;;5037596;28;8767;-75
2022/07/02 12:39:12;;;;;;;;;6.20;5.00;;;;;;;;5055372;28;8867;-75
2022/07/02 12:41:39;;;;;;;;;7.20;6.20;;;;;;;;5037698;28;8972;-81
2022/07/02 12:44:05;;;;;;;;;9.60;6.20;;;;;;;;5037828;28;8771;-75
2022/07/02 12:46:32;;;;;;;;;12.00;6.20;;;;;;;;5037073;28;9427;-75
2022/07/02 12:48:58;;;;;;;;;7.60;6.60;;;;;;;;5054646;28;8767;-75
2022/07/02 12:51:25;;;;;;;;;8.20;6.80;;;;;;;;5054829;28;8830;-75
2022/07/02 12:53:58;;;;;;;;;8.20;7.80;;;;;;;;5020871;28;8790;-75
2022/07/02 12:56:25;;;;;;;;;10.40;9.00;;;;;;;;5037349;28;8767;-75
2022/07/02 12:58:51;;;;;;;;;10.00;9.40;;;;;;;;5055292;28;8797;-75
2022/07/02 13:01:18;;;;;;;;;9.80;8.60;;;;;;;;5038050;28;8771;-75
2022/07/02 13:03:44;;;;;;;;;6.20;2.40;;;;;;;;5036968;28;8779;-75
2022/07/02 13:06:11;;;;;;;;;11.20;9.40;;;;;;;;5037313;28;8789;-75
2022/07/02 13:08:38;;;;;;;;;9.20;8.80;;;;;;;;5054672;28;8872;-75
2022/07/02 13:11:04;;;;;;;;;11.00;7.60;;;;;;;;5037349;28;8807;-75
2022/07/02 13:13:31;;;;;;;;;14.40;8.00;;;;;;;;5020178;28;8782;-76
2022/07/02 13:15:58;;;;;;;;;12.20;10.60;;;;;;;;5037641;28;8770;-75
2022/07/02 13:18:25;;;;;;;;;10.40;7.00;;;;;;;;5036764;28;8779;-75
2022/07/02 13:20:51;;;;;;;;;9.80;7.80;;;;;;;;5037161;28;8774;-75
2022/07/02 13:23:18;;;;;;;;;9.00;6.20;;;;;;;;5036909;28;8759;-80
2022/07/02 13:25:45;;;;;;;;;7.80;7.80;;;;;;;;5054815;28;8840;-75
2022/07/02 13:28:11;;;;;;;;;9.40;6.60;;;;;;;;5055332;28;8751;-75
2022/07/02 13:30:38;;;;;;;;;11.00;7.80;;;;;;;;5036814;28;8909;-75
2022/07/02 13:33:05;;;;;;;;;10.00;8.40;;;;;;;;5032805;28;9521;-75
2022/07/02 13:35:31;;;;;;;;;12.80;9.40;;;;;;;;5033392;28;8879;-75
2022/07/02 13:37:59;;;;;;;;;10.80;9.00;;;;;;;;5033439;28;8841;-75
2022/07/02 13:40:25;;;;;;;;;9.60;9.40;;;;;;;;5016921;28;9531;-76
2022/07/02 13:42:52;;;;;;;;;14.60;12.20;;;;;;;;5035171;28;8769;-80
2022/07/02 13:45:19;;;;;;;;;9.60;9.00;;;;;;;;5033005;28;8791;-75
2022/07/02 13:47:45;;;;;;;;;12.60;11.00;;;;;;;;5033084;28;8822;-75
2022/07/02 13:50:13;;;;;;;;;9.80;9.20;;;;;;;;5034328;28;8985;-80
2022/07/02 13:52:40;;;;;;;;;9.20;9.20;;;;;;;;5033831;28;8808;-75
2022/07/02 13:55:07;;;;;;;;;6.00;5.40;;;;;;;;5033973;28;8768;-75
2022/07/02 13:57:34;;;;;;;;;11.80;6.40;;;;;;;;5032570;28;8792;-75
2022/07/02 14:00:01;;;;;;;;;5.20;5.00;;;;;;;;5035324;28;8780;-77
2022/07/02 14:02:27;;;;;;;;;5.00;5.00;;;;;;;;5036957;28;8820;-76
2022/07/02 14:04:54;;;;;;;;;6.20;6.00;;;;;;;;5020873;28;9400;-75
2022/07/02 14:07:21;;;;;;;;;7.00;5.00;;;;;;;;5037863;28;8768;-76
2022/07/02 14:09:47;;;;;;;;;7.60;5.20;;;;;;;;5038346;28;8814;-75
2022/07/02 14:12:14;;;;;;;;;6.80;5.00;;;;;;;;5036816;28;9516;-77
2022/07/02 14:14:40;;;;;;;;;4.60;4.40;;;;;;;;5038230;28;8768;-75
2022/07/02 14:17:07;;;;;;;;;4.80;3.40;;;;;;;;5036935;28;8870;-79
2022/07/02 14:19:35;;;;;;;;;7.00;4.00;;;;;;;;5036863;28;9487;-75
2022/07/02 14:22:02;;;;;;;;;4.60;4.60;;;;;;;;5038898;28;8842;-74
2022/07/02 14:24:29;;;;;;;;;5.00;5.00;;;;;;;;5037732;28;8808;-75
2022/07/02 14:26:55;;;;;;;;;7.80;5.00;;;;;;;;5036775;28;8839;-75
2022/07/02 14:29:22;;;;;;;;;9.80;6.00;;;;;;;;5036692;28;8919;-74
2022/07/02 14:31:50;;;;;;;;;12.20;10.00;;;;;;;;5045675;28;8902;-74
2022/07/02 14:34:17;;;;;;;;;15.00;11.60;;;;;;;;5041013;28;8763;-75
2022/07/02 14:36:44;;;;;;;;;19.60;15.20;;;;;;;;5040023;28;8759;-75
2022/07/02 14:39:11;;;;;;;;;17.20;12.00;;;;;;;;5040170;28;8775;-75
2022/07/02 14:41:39;;;;;;;;;15.00;12.80;;;;;;;;5057500;28;8771;-74
2022/07/02 14:44:08;;;;;;;;;12.80;12.20;;;;;;;;5057593;28;8829;-76
2022/07/02 14:46:34;;;;;;;;;14.00;10.40;;;;;;;;5039930;28;8748;-75
2022/07/02 14:49:01;;;;;;;;;12.60;10.20;;;;;;;;5037161;28;8777;-75
2022/07/02 14:51:28;;;;;;;;;10.80;9.00;;;;;;;;5019722;28;8789;-75
2022/07/02 14:53:55;;;;;;;;;8.00;7.60;;;;;;;;5019867;28;8773;-74
2022/07/02 14:56:21;;;;;;;;;11.00;9.60;;;;;;;;5019555;28;8765;-75
2022/07/02 14:58:48;;;;;;;;;9.80;8.80;;;;;;;;5019886;28;8793;-79
2022/07/02 15:01:15;;;;;;;;;13.40;10.00;;;;;;;;5020565;28;8761;-75